sensor_id;sensor_type;location;lat;lon;timestamp;temperature;humidity
2851;DHT22;1433;49.976;8.342;2024-01-06T00:02:16;4.70;99.90
2851;DHT22;1433;49.976;8.342;2024-01-06T00:04:42;4.70;99.90
2851;DHT22;1433;49.976;8.342;2024-01-06T00:07:09;4.80;99.90
2851;DHT22;1433;49.976;8.342;2024-01-06T00:09:35;4.80;99.90
2851;DHT22;1433;49.976;8.342;2024-01-06T00:12:01;4.80;99.90
2851;DHT22;1433;49.976;8.342;2024-01-06T00:14:28;4.80;99.90
2851;DHT22;1433;49.976;8.342;2024-01-06T00:16:54;4.80;99.90
2851;DHT22;1433;49.976;8.342;2024-01-06T00:19:20;4.80;99.90
2851;DHT22;1433;49.976;8.342;2024-01-06T00:21:46;4.80;99.90
2851;DHT22;1433;49.976;8.342;2024-01-06T00:24:12;4.70;99.90
2851;DHT22;1433;49.976;8.342;2024-01-06T00:26:38;4.70;99.90
2851;DHT22;1433;49.976;8.342;2024-01-06T00:29:05;4.70;99.90
2851;DHT22;1433;49.976;8.342;2024-01-06T00:31:31;4.70;99.90
2851;DHT22;1433;49.976;8.342;2024-01-06T00:33:57;4.80;99.90
2851;DHT22;1433;49.976;8.342;2024-01-06T00:36:23;4.80;99.90
2851;DHT22;1433;49.976;8.342;2024-01-06T00:38:49;4.80;99.90
2851;DHT22;1433;49.976;8.342;2024-01-06T00:41:15;4.80;99.90
2851;DHT22;1433;49.976;8.342;2024-01-06T00:43:42;4.80;99.90
2851;DHT22;1433;49.976;8.342;2024-01-06T00:46:08;4.80;99.90
2851;DHT22;1433;49.976;8.342;2024-01-06T00:48:34;4.90;99.90
2851;DHT22;1433;49.976;8.342;2024-01-06T00:51:01;4.90;99.90
2851;DHT22;1433;49.976;8.342;2024-01-06T00:53:27;4.90;99.90
2851;DHT22;1433;49.976;8.342;2024-01-06T00:55:53;4.90;99.90
2851;DHT22;1433;49.976;8.342;2024-01-06T00:58:19;5.00;99.90
2851;DHT22;1433;49.976;8.342;2024-01-06T01:00:45;5.00;99.90
2851;DHT22;1433;49.976;8.342;2024-01-06T01:03:12;5.00;99.90
2851;DHT22;1433;49.976;8.342;2024-01-06T01:05:38;5.00;99.90
2851;DHT22;1433;49.976;8.342;2024-01-06T01:08:05;5.00;99.90
2851;DHT22;1433;49.976;8.342;2024-01-06T01:10:31;5.10;99.90
2851;DHT22;1433;49.976;8.342;2024-01-06T01:12:57;5.10;99.90
2851;DHT22;1433;49.976;8.342;2024-01-06T01:15:23;5.10;99.90
2851;DHT22;1433;49.976;8.342;2024-01-06T01:17:49;5.10;99.90
2851;DHT22;1433;49.976;8.342;2024-01-06T01:20:15;5.10;99.90
2851;DHT22;1433;49.976;8.342;2024-01-06T01:22:42;5.10;99.90
2851;DHT22;1433;49.976;8.342;2024-01-06T01:25:08;5.20;99.90
2851;DHT22;1433;49.976;8.342;2024-01-06T01:27:34;5.10;99.90
2851;DHT22;1433;49.976;8.342;2024-01-06T01:30:00;5.20;99.90
2851;DHT22;1433;49.976;8.342;2024-01-06T01:32:27;5.20;99.90
2851;DHT22;1433;49.976;8.342;2024-01-06T01:34:53;5.20;99.90
2851;DHT22;1433;49.976;8.342;2024-01-06T01:37:19;5.20;99.90
2851;DHT22;1433;49.976;8.342;2024-01-06T01:39:45;5.20;99.90
2851;DHT22;1433;49.976;8.342;2024-01-06T01:42:11;5.20;99.90
2851;DHT22;1433;49.976;8.342;2024-01-06T01:44:38;5.20;99.90
2851;DHT22;1433;49.976;8.342;2024-01-06T01:47:05;5.20;99.90
2851;DHT22;1433;49.976;8.342;2024-01-06T01:49:31;5.20;99.90
2851;DHT22;1433;49.976;8.342;2024-01-06T01:51:58;5.20;99.90
2851;DHT22;1433;49.976;8.342;2024-01-06T01:54:25;5.20;99.90
2851;DHT22;1433;49.976;8.342;2024-01-06T01:56:51;5.20;99.90
2851;DHT22;1433;49.976;8.342;2024-01-06T01:59:18;5.30;99.90
2851;DHT22;1433;49.976;8.342;2024-01-06T02:01:45;5.20;99.90
2851;DHT22;1433;49.976;8.342;2024-01-06T02:04:12;5.30;99.90
2851;DHT22;1433;49.976;8.342;2024-01-06T02:06:38;5.30;99.90
2851;DHT22;1433;49.976;8.342;2024-01-06T02:09:04;5.30;99.90
2851;DHT22;1433;49.976;8.342;2024-01-06T02:11:31;5.30;99.90
2851;DHT22;1433;49.976;8.342;2024-01-06T02:13:57;5.30;99.90
2851;DHT22;1433;49.976;8.342;2024-01-06T02:16:24;5.30;99.90
2851;DHT22;1433;49.976;8.342;2024-01-06T02:18:50;5.30;99.90
2851;DHT22;1433;49.976;8.342;2024-01-06T02:21:17;5.30;99.90
2851;DHT22;1433;49.976;8.342;2024-01-06T02:23:43;5.30;99.90
2851;DHT22;1433;49.976;8.342;2024-01-06T02:26:10;5.40;99.90
2851;DHT22;1433;49.976;8.342;2024-01-06T02:28:37;5.40;99.90
2851;DHT22;1433;49.976;8.342;2024-01-06T02:31:03;5.40;99.90
2851;DHT22;1433;49.976;8.342;2024-01-06T02:33:29;5.40;99.90
2851;DHT22;1433;49.976;8.342;2024-01-06T02:35:55;5.40;99.90
2851;DHT22;1433;49.976;8.342;2024-01-06T02:38:21;5.50;99.90
2851;DHT22;1433;49.976;8.342;2024-01-06T02:40:47;5.50;99.90
2851;DHT22;1433;49.976;8.342;2024-01-06T02:43:13;5.50;99.90
2851;DHT22;1433;49.976;8.342;2024-01-06T02:45:39;5.50;99.90
2851;DHT22;1433;49.976;8.342;2024-01-06T02:48:06;5.50;99.90
2851;DHT22;1433;49.976;8.342;2024-01-06T02:50:32;5.50;99.90
2851;DHT22;1433;49.976;8.342;2024-01-06T02:53:00;5.60;99.90
2851;DHT22;1433;49.976;8.342;2024-01-06T02:55:26;5.60;99.90
2851;DHT22;1433;49.976;8.342;2024-01-06T02:57:52;5.60;99.90
2851;DHT22;1433;49.976;8.342;2024-01-06T03:00:18;5.70;99.90
2851;DHT22;1433;49.976;8.342;2024-01-06T03:02:45;5.70;99.90
2851;DHT22;1433;49.976;8.342;2024-01-06T03:05:11;5.70;99.90
2851;DHT22;1433;49.976;8.342;2024-01-06T03:07:37;5.80;99.90
2851;DHT22;1433;49.976;8.342;2024-01-06T03:10:04;5.80;99.90
2851;DHT22;1433;49.976;8.342;2024-01-06T03:12:30;5.80;99.90
2851;DHT22;1433;49.976;8.342;2024-01-06T03:14:56;5.80;99.90
2851;DHT22;1433;49.976;8.342;2024-01-06T03:17:22;5.80;99.90
2851;DHT22;1433;49.976;8.342;2024-01-06T03:19:48;5.80;99.90
2851;DHT22;1433;49.976;8.342;2024-01-06T03:22:14;5.90;99.90
2851;DHT22;1433;49.976;8.342;2024-01-06T03:24:41;5.90;99.90
2851;DHT22;1433;49.976;8.342;2024-01-06T03:27:07;5.90;99.90
2851;DHT22;1433;49.976;8.342;2024-01-06T03:29:34;5.80;99.90
2851;DHT22;1433;49.976;8.342;2024-01-06T03:32:01;5.80;99.90
2851;DHT22;1433;49.976;8.342;2024-01-06T03:34:27;5.70;99.90
2851;DHT22;1433;49.976;8.342;2024-01-06T03:36:53;5.70;99.90
2851;DHT22;1433;49.976;8.342;2024-01-06T03:39:19;5.70;99.90
2851;DHT22;1433;49.976;8.342;2024-01-06T03:41:45;5.70;99.90
2851;DHT22;1433;49.976;8.342;2024-01-06T03:44:11;5.70;99.90
2851;DHT22;1433;49.976;8.342;2024-01-06T03:46:38;5.70;99.90
2851;DHT22;1433;49.976;8.342;2024-01-06T03:49:04;5.70;99.90
2851;DHT22;1433;49.976;8.342;2024-01-06T03:51:30;5.60;99.90
2851;DHT22;1433;49.976;8.342;2024-01-06T03:53:56;5.40;99.90
2851;DHT22;1433;49.976;8.342;2024-01-06T03:56:22;5.30;99.90
2851;DHT22;1433;49.976;8.342;2024-01-06T03:58:48;5.30;99.90
2851;DHT22;1433;49.976;8.342;2024-01-06T04:01:14;5.40;99.90
2851;DHT22;1433;49.976;8.342;2024-01-06T04:03:41;5.50;99.90
2851;DHT22;1433;49.976;8.342;2024-01-06T04:06:07;5.50;99.90
2851;DHT22;1433;49.976;8.342;2024-01-06T04:08:33;5.50;99.90
2851;DHT22;1433;49.976;8.342;2024-01-06T04:10:59;5.50;99.90
2851;DHT22;1433;49.976;8.342;2024-01-06T04:13:25;5.40;99.90
2851;DHT22;1433;49.976;8.342;2024-01-06T04:15:51;5.40;99.90
2851;DHT22;1433;49.976;8.342;2024-01-06T04:18:17;5.40;99.90
2851;DHT22;1433;49.976;8.342;2024-01-06T04:20:44;5.30;99.90
2851;DHT22;1433;49.976;8.342;2024-01-06T04:23:10;5.40;99.90
2851;DHT22;1433;49.976;8.342;2024-01-06T04:25:36;5.40;99.90
2851;DHT22;1433;49.976;8.342;2024-01-06T04:28:02;5.40;99.90
2851;DHT22;1433;49.976;8.342;2024-01-06T04:30:29;5.50;99.90
2851;DHT22;1433;49.976;8.342;2024-01-06T04:32:55;5.60;99.90
2851;DHT22;1433;49.976;8.342;2024-01-06T04:35:23;5.60;99.90
2851;DHT22;1433;49.976;8.342;2024-01-06T04:37:50;5.70;99.90
2851;DHT22;1433;49.976;8.342;2024-01-06T04:40:16;5.80;99.90
2851;DHT22;1433;49.976;8.342;2024-01-06T04:42:42;5.80;99.90
2851;DHT22;1433;49.976;8.342;2024-01-06T04:45:09;5.80;99.90
2851;DHT22;1433;49.976;8.342;2024-01-06T04:47:36;5.90;99.90
2851;DHT22;1433;49.976;8.342;2024-01-06T04:50:02;5.90;99.90
2851;DHT22;1433;49.976;8.342;2024-01-06T04:52:28;5.90;99.90
2851;DHT22;1433;49.976;8.342;2024-01-06T04:54:55;5.90;99.90
2851;DHT22;1433;49.976;8.342;2024-01-06T04:57:22;5.80;99.90
2851;DHT22;1433;49.976;8.342;2024-01-06T04:59:48;5.80;99.90
2851;DHT22;1433;49.976;8.342;2024-01-06T05:02:15;5.80;99.90
2851;DHT22;1433;49.976;8.342;2024-01-06T05:04:41;5.80;99.90
2851;DHT22;1433;49.976;8.342;2024-01-06T05:07:07;5.80;99.90
2851;DHT22;1433;49.976;8.342;2024-01-06T05:09:33;5.80;99.90
2851;DHT22;1433;49.976;8.342;2024-01-06T05:11:59;5.90;99.90
2851;DHT22;1433;49.976;8.342;2024-01-06T05:14:26;5.90;99.90
2851;DHT22;1433;49.976;8.342;2024-01-06T05:16:52;5.90;99.90
2851;DHT22;1433;49.976;8.342;2024-01-06T05:19:18;5.80;99.90
2851;DHT22;1433;49.976;8.342;2024-01-06T05:21:47;5.80;99.90
2851;DHT22;1433;49.976;8.342;2024-01-06T05:24:14;5.80;99.90
2851;DHT22;1433;49.976;8.342;2024-01-06T05:26:40;5.70;99.90
2851;DHT22;1433;49.976;8.342;2024-01-06T05:29:07;5.70;99.90
2851;DHT22;1433;49.976;8.342;2024-01-06T05:31:33;5.80;99.90
2851;DHT22;1433;49.976;8.342;2024-01-06T05:34:00;5.80;99.90
2851;DHT22;1433;49.976;8.342;2024-01-06T05:36:26;5.80;99.90
2851;DHT22;1433;49.976;8.342;2024-01-06T05:38:52;5.80;99.90
2851;DHT22;1433;49.976;8.342;2024-01-06T05:41:18;5.80;99.90
2851;DHT22;1433;49.976;8.342;2024-01-06T05:43:44;5.80;99.90
2851;DHT22;1433;49.976;8.342;2024-01-06T05:46:11;5.80;99.90
2851;DHT22;1433;49.976;8.342;2024-01-06T05:48:37;5.90;99.90
2851;DHT22;1433;49.976;8.342;2024-01-06T05:51:06;5.90;99.90
2851;DHT22;1433;49.976;8.342;2024-01-06T05:53:32;5.90;99.90
2851;DHT22;1433;49.976;8.342;2024-01-06T05:55:58;5.90;99.90
2851;DHT22;1433;49.976;8.342;2024-01-06T05:58:25;5.90;99.90
2851;DHT22;1433;49.976;8.342;2024-01-06T06:00:51;6.00;99.90
2851;DHT22;1433;49.976;8.342;2024-01-06T06:03:17;6.00;99.90
2851;DHT22;1433;49.976;8.342;2024-01-06T06:05:43;6.00;99.90
2851;DHT22;1433;49.976;8.342;2024-01-06T06:08:10;6.00;99.90
2851;DHT22;1433;49.976;8.342;2024-01-06T06:10:36;6.00;99.90
2851;DHT22;1433;49.976;8.342;2024-01-06T06:13:26;6.00;99.90
2851;DHT22;1433;49.976;8.342;2024-01-06T06:15:52;6.10;99.90
2851;DHT22;1433;49.976;8.342;2024-01-06T06:18:19;6.00;99.90
2851;DHT22;1433;49.976;8.342;2024-01-06T06:20:45;6.00;99.90
2851;DHT22;1433;49.976;8.342;2024-01-06T06:23:11;6.10;99.90
2851;DHT22;1433;49.976;8.342;2024-01-06T06:25:40;6.10;99.90
2851;DHT22;1433;49.976;8.342;2024-01-06T06:28:06;6.10;99.90
2851;DHT22;1433;49.976;8.342;2024-01-06T06:30:33;6.10;99.90
2851;DHT22;1433;49.976;8.342;2024-01-06T06:32:59;6.10;99.90
2851;DHT22;1433;49.976;8.342;2024-01-06T06:35:25;6.10;99.90
2851;DHT22;1433;49.976;8.342;2024-01-06T06:37:52;6.10;99.90
2851;DHT22;1433;49.976;8.342;2024-01-06T06:40:18;6.10;99.90
2851;DHT22;1433;49.976;8.342;2024-01-06T06:42:44;6.10;99.90
2851;DHT22;1433;49.976;8.342;2024-01-06T06:45:10;6.10;99.90
2851;DHT22;1433;49.976;8.342;2024-01-06T06:47:39;6.10;99.90
2851;DHT22;1433;49.976;8.342;2024-01-06T06:50:06;6.20;99.90
2851;DHT22;1433;49.976;8.342;2024-01-06T06:52:32;6.20;99.90
2851;DHT22;1433;49.976;8.342;2024-01-06T06:54:58;6.20;99.90
2851;DHT22;1433;49.976;8.342;2024-01-06T06:57:24;6.20;99.90
2851;DHT22;1433;49.976;8.342;2024-01-06T06:59:50;6.20;99.90
2851;DHT22;1433;49.976;8.342;2024-01-06T07:02:16;6.20;99.90
2851;DHT22;1433;49.976;8.342;2024-01-06T07:04:42;6.20;99.90
2851;DHT22;1433;49.976;8.342;2024-01-06T07:07:09;6.20;99.90
2851;DHT22;1433;49.976;8.342;2024-01-06T07:09:35;6.10;99.90
2851;DHT22;1433;49.976;8.342;2024-01-06T07:12:02;6.10;99.90
2851;DHT22;1433;49.976;8.342;2024-01-06T07:14:28;6.00;99.90
2851;DHT22;1433;49.976;8.342;2024-01-06T07:16:54;6.00;99.90
2851;DHT22;1433;49.976;8.342;2024-01-06T07:19:21;6.10;99.90
2851;DHT22;1433;49.976;8.342;2024-01-06T07:21:47;6.10;99.90
2851;DHT22;1433;49.976;8.342;2024-01-06T07:24:14;6.20;99.90
2851;DHT22;1433;49.976;8.342;2024-01-06T07:26:40;6.20;99.90
2851;DHT22;1433;49.976;8.342;2024-01-06T07:29:07;6.20;99.90
2851;DHT22;1433;49.976;8.342;2024-01-06T07:31:34;6.20;99.90
2851;DHT22;1433;49.976;8.342;2024-01-06T07:34:00;6.20;99.90
2851;DHT22;1433;49.976;8.342;2024-01-06T07:36:26;6.20;99.90
2851;DHT22;1433;49.976;8.342;2024-01-06T07:38:53;6.20;99.90
2851;DHT22;1433;49.976;8.342;2024-01-06T07:41:19;6.20;99.90
2851;DHT22;1433;49.976;8.342;2024-01-06T07:43:45;6.20;99.90
2851;DHT22;1433;49.976;8.342;2024-01-06T07:46:11;6.20;99.90
2851;DHT22;1433;49.976;8.342;2024-01-06T07:48:37;6.20;99.90
2851;DHT22;1433;49.976;8.342;2024-01-06T07:51:04;6.20;99.90
2851;DHT22;1433;49.976;8.342;2024-01-06T07:53:30;6.20;99.90
2851;DHT22;1433;49.976;8.342;2024-01-06T07:55:56;6.20;99.90
2851;DHT22;1433;49.976;8.342;2024-01-06T07:58:22;6.30;99.90
2851;DHT22;1433;49.976;8.342;2024-01-06T08:00:49;6.30;99.90
2851;DHT22;1433;49.976;8.342;2024-01-06T08:03:15;6.30;99.90
2851;DHT22;1433;49.976;8.342;2024-01-06T08:05:42;6.40;99.90
2851;DHT22;1433;49.976;8.342;2024-01-06T08:08:08;6.40;99.90
2851;DHT22;1433;49.976;8.342;2024-01-06T08:10:34;6.40;99.90
2851;DHT22;1433;49.976;8.342;2024-01-06T08:13:01;6.40;99.90
2851;DHT22;1433;49.976;8.342;2024-01-06T08:15:27;6.40;99.90
2851;DHT22;1433;49.976;8.342;2024-01-06T08:17:53;6.40;99.90
2851;DHT22;1433;49.976;8.342;2024-01-06T08:20:19;6.50;99.90
2851;DHT22;1433;49.976;8.342;2024-01-06T08:22:46;6.50;99.90
2851;DHT22;1433;49.976;8.342;2024-01-06T08:25:13;6.40;99.90
2851;DHT22;1433;49.976;8.342;2024-01-06T08:27:39;6.50;99.90
2851;DHT22;1433;49.976;8.342;2024-01-06T08:30:06;6.50;99.90
2851;DHT22;1433;49.976;8.342;2024-01-06T08:32:33;6.60;99.90
2851;DHT22;1433;49.976;8.342;2024-01-06T08:34:59;6.60;99.90
2851;DHT22;1433;49.976;8.342;2024-01-06T08:37:25;6.70;99.90
2851;DHT22;1433;49.976;8.342;2024-01-06T08:39:51;6.70;99.90
2851;DHT22;1433;49.976;8.342;2024-01-06T08:42:17;6.80;99.90
2851;DHT22;1433;49.976;8.342;2024-01-06T08:44:44;6.80;99.90
2851;DHT22;1433;49.976;8.342;2024-01-06T08:47:11;6.80;99.90
2851;DHT22;1433;49.976;8.342;2024-01-06T08:49:37;6.80;99.90
2851;DHT22;1433;49.976;8.342;2024-01-06T08:52:04;6.80;99.90
2851;DHT22;1433;49.976;8.342;2024-01-06T08:54:31;6.80;99.90
2851;DHT22;1433;49.976;8.342;2024-01-06T08:56:58;6.80;99.90
2851;DHT22;1433;49.976;8.342;2024-01-06T08:59:24;6.90;99.90
2851;DHT22;1433;49.976;8.342;2024-01-06T09:01:50;6.90;99.90
2851;DHT22;1433;49.976;8.342;2024-01-06T09:04:18;7.00;99.90
2851;DHT22;1433;49.976;8.342;2024-01-06T09:06:44;7.00;99.90
2851;DHT22;1433;49.976;8.342;2024-01-06T09:09:13;7.00;99.90
2851;DHT22;1433;49.976;8.342;2024-01-06T09:11:39;7.00;99.90
2851;DHT22;1433;49.976;8.342;2024-01-06T09:14:06;7.00;99.90
2851;DHT22;1433;49.976;8.342;2024-01-06T09:16:32;7.10;99.90
2851;DHT22;1433;49.976;8.342;2024-01-06T09:18:58;7.10;99.90
2851;DHT22;1433;49.976;8.342;2024-01-06T09:21:24;7.10;99.90
2851;DHT22;1433;49.976;8.342;2024-01-06T09:23:52;7.10;99.90
2851;DHT22;1433;49.976;8.342;2024-01-06T09:26:18;7.00;99.90
2851;DHT22;1433;49.976;8.342;2024-01-06T09:28:44;7.00;99.90
2851;DHT22;1433;49.976;8.342;2024-01-06T09:31:11;7.00;99.90
2851;DHT22;1433;49.976;8.342;2024-01-06T09:33:37;7.00;99.90
2851;DHT22;1433;49.976;8.342;2024-01-06T09:36:04;7.10;99.90
2851;DHT22;1433;49.976;8.342;2024-01-06T09:38:31;7.10;99.90
2851;DHT22;1433;49.976;8.342;2024-01-06T09:40:58;7.10;99.90
2851;DHT22;1433;49.976;8.342;2024-01-06T09:43:24;7.10;99.90
2851;DHT22;1433;49.976;8.342;2024-01-06T09:45:58;7.10;99.90
2851;DHT22;1433;49.976;8.342;2024-01-06T09:48:22;7.20;99.90
2851;DHT22;1433;49.976;8.342;2024-01-06T09:50:52;7.10;99.90
2851;DHT22;1433;49.976;8.342;2024-01-06T09:53:20;7.10;99.90
2851;DHT22;1433;49.976;8.342;2024-01-06T09:55:47;7.10;99.90
2851;DHT22;1433;49.976;8.342;2024-01-06T09:58:15;7.10;99.90
2851;DHT22;1433;49.976;8.342;2024-01-06T10:00:41;7.00;99.90
2851;DHT22;1433;49.976;8.342;2024-01-06T10:03:07;7.00;99.90
2851;DHT22;1433;49.976;8.342;2024-01-06T10:05:34;7.10;99.90
2851;DHT22;1433;49.976;8.342;2024-01-06T10:08:00;7.00;99.90
2851;DHT22;1433;49.976;8.342;2024-01-06T10:10:27;7.00;99.90
2851;DHT22;1433;49.976;8.342;2024-01-06T10:12:53;7.10;99.90
2851;DHT22;1433;49.976;8.342;2024-01-06T10:15:21;7.10;99.90
2851;DHT22;1433;49.976;8.342;2024-01-06T10:17:47;7.10;99.90
2851;DHT22;1433;49.976;8.342;2024-01-06T10:20:13;7.20;99.90
2851;DHT22;1433;49.976;8.342;2024-01-06T10:22:42;7.20;99.90
2851;DHT22;1433;49.976;8.342;2024-01-06T10:25:09;7.30;99.90
2851;DHT22;1433;49.976;8.342;2024-01-06T10:27:40;7.40;99.90
2851;DHT22;1433;49.976;8.342;2024-01-06T10:30:07;7.40;99.90
2851;DHT22;1433;49.976;8.342;2024-01-06T10:32:35;7.50;99.90
2851;DHT22;1433;49.976;8.342;2024-01-06T10:35:03;7.50;99.90
2851;DHT22;1433;49.976;8.342;2024-01-06T10:37:30;7.50;99.90
2851;DHT22;1433;49.976;8.342;2024-01-06T10:40:08;7.60;99.90
2851;DHT22;1433;49.976;8.342;2024-01-06T10:42:36;7.60;99.90
2851;DHT22;1433;49.976;8.342;2024-01-06T10:45:05;7.60;99.90
2851;DHT22;1433;49.976;8.342;2024-01-06T10:47:32;7.60;99.90
2851;DHT22;1433;49.976;8.342;2024-01-06T10:49:59;7.60;99.90
2851;DHT22;1433;49.976;8.342;2024-01-06T10:52:27;7.70;99.90
2851;DHT22;1433;49.976;8.342;2024-01-06T10:54:54;7.70;99.90
2851;DHT22;1433;49.976;8.342;2024-01-06T10:57:22;7.80;99.90
2851;DHT22;1433;49.976;8.342;2024-01-06T10:59:50;8.10;99.90
2851;DHT22;1433;49.976;8.342;2024-01-06T11:02:17;8.00;99.90
2851;DHT22;1433;49.976;8.342;2024-01-06T11:04:47;8.10;99.90
2851;DHT22;1433;49.976;8.342;2024-01-06T11:07:16;8.30;99.90
2851;DHT22;1433;49.976;8.342;2024-01-06T11:10:05;8.40;99.90
2851;DHT22;1433;49.976;8.342;2024-01-06T11:12:28;8.50;1.00
2851;DHT22;1433;49.976;8.342;2024-01-06T11:14:54;8.60;1.00
2851;DHT22;1433;49.976;8.342;2024-01-06T11:20:22;8.50;1.00
2851;DHT22;1433;49.976;8.342;2024-01-06T11:22:49;8.60;1.00
2851;DHT22;1433;49.976;8.342;2024-01-06T11:25:18;8.60;1.00
2851;DHT22;1433;49.976;8.342;2024-01-06T11:27:47;8.70;1.00
2851;DHT22;1433;49.976;8.342;2024-01-06T11:30:22;9.10;1.00
2851;DHT22;1433;49.976;8.342;2024-01-06T11:32:50;9.20;1.00
2851;DHT22;1433;49.976;8.342;2024-01-06T11:35:20;9.40;99.90
2851;DHT22;1433;49.976;8.342;2024-01-06T11:45:37;8.80;1.00
2851;DHT22;1433;49.976;8.342;2024-01-06T11:48:05;8.50;1.00
2851;DHT22;1433;49.976;8.342;2024-01-06T11:50:34;8.50;1.00
2851;DHT22;1433;49.976;8.342;2024-01-06T11:53:01;8.90;99.90
2851;DHT22;1433;49.976;8.342;2024-01-06T11:55:28;8.70;99.90
2851;DHT22;1433;49.976;8.342;2024-01-06T11:57:57;8.70;1.00
2851;DHT22;1433;49.976;8.342;2024-01-06T12:00:27;8.70;1.00
2851;DHT22;1433;49.976;8.342;2024-01-06T12:02:58;8.80;99.90
2851;DHT22;1433;49.976;8.342;2024-01-06T12:05:25;8.80;1.00
2851;DHT22;1433;49.976;8.342;2024-01-06T12:07:54;8.80;1.00
2851;DHT22;1433;49.976;8.342;2024-01-06T12:10:21;8.90;1.00
2851;DHT22;1433;49.976;8.342;2024-01-06T12:13:01;9.00;99.90
2851;DHT22;1433;49.976;8.342;2024-01-06T12:15:30;8.90;1.00
2851;DHT22;1433;49.976;8.342;2024-01-06T12:17:57;8.80;1.00
2851;DHT22;1433;49.976;8.342;2024-01-06T12:20:25;8.80;1.00
2851;DHT22;1433;49.976;8.342;2024-01-06T12:22:52;8.90;1.00
2851;DHT22;1433;49.976;8.342;2024-01-06T12:25:20;8.70;1.00
2851;DHT22;1433;49.976;8.342;2024-01-06T12:27:48;8.60;1.00
2851;DHT22;1433;49.976;8.342;2024-01-06T12:30:18;8.60;1.00
2851;DHT22;1433;49.976;8.342;2024-01-06T12:32:46;8.50;1.00
2851;DHT22;1433;49.976;8.342;2024-01-06T12:35:13;8.30;1.00
2851;DHT22;1433;49.976;8.342;2024-01-06T12:37:41;8.50;5.30
2851;DHT22;1433;49.976;8.342;2024-01-06T12:40:10;8.60;24.10
2851;DHT22;1433;49.976;8.342;2024-01-06T12:42:36;8.50;1.00
2851;DHT22;1433;49.976;8.342;2024-01-06T12:45:03;8.50;99.90
2851;DHT22;1433;49.976;8.342;2024-01-06T12:47:29;8.40;99.90
2851;DHT22;1433;49.976;8.342;2024-01-06T12:49:55;8.30;99.90
2851;DHT22;1433;49.976;8.342;2024-01-06T12:52:22;8.30;99.90
2851;DHT22;1433;49.976;8.342;2024-01-06T12:54:48;8.50;99.90
2851;DHT22;1433;49.976;8.342;2024-01-06T12:57:14;8.60;99.90
2851;DHT22;1433;49.976;8.342;2024-01-06T12:59:40;8.60;99.90
2851;DHT22;1433;49.976;8.342;2024-01-06T13:02:07;8.30;99.90
2851;DHT22;1433;49.976;8.342;2024-01-06T13:04:33;8.10;99.90
2851;DHT22;1433;49.976;8.342;2024-01-06T13:07:00;8.10;99.90
2851;DHT22;1433;49.976;8.342;2024-01-06T13:09:28;8.00;99.90
2851;DHT22;1433;49.976;8.342;2024-01-06T13:11:54;7.90;99.90
2851;DHT22;1433;49.976;8.342;2024-01-06T13:14:22;8.00;99.90
2851;DHT22;1433;49.976;8.342;2024-01-06T13:16:49;7.90;99.90
2851;DHT22;1433;49.976;8.342;2024-01-06T13:19:15;7.90;99.90
2851;DHT22;1433;49.976;8.342;2024-01-06T13:21:41;7.80;99.90
2851;DHT22;1433;49.976;8.342;2024-01-06T13:24:08;7.80;99.90
2851;DHT22;1433;49.976;8.342;2024-01-06T13:26:35;7.90;99.90
2851;DHT22;1433;49.976;8.342;2024-01-06T13:29:01;7.90;99.90
2851;DHT22;1433;49.976;8.342;2024-01-06T13:31:28;8.00;99.90
2851;DHT22;1433;49.976;8.342;2024-01-06T13:33:55;7.90;99.90
2851;DHT22;1433;49.976;8.342;2024-01-06T13:36:21;8.00;99.90
2851;DHT22;1433;49.976;8.342;2024-01-06T13:38:47;8.00;99.90
2851;DHT22;1433;49.976;8.342;2024-01-06T13:41:15;8.10;99.90
2851;DHT22;1433;49.976;8.342;2024-01-06T13:43:41;7.90;99.90
2851;DHT22;1433;49.976;8.342;2024-01-06T13:46:07;8.10;99.90
2851;DHT22;1433;49.976;8.342;2024-01-06T13:48:34;8.00;99.90
2851;DHT22;1433;49.976;8.342;2024-01-06T13:51:00;8.00;99.90
2851;DHT22;1433;49.976;8.342;2024-01-06T13:53:26;7.90;99.90
2851;DHT22;1433;49.976;8.342;2024-01-06T13:55:52;7.70;99.90
2851;DHT22;1433;49.976;8.342;2024-01-06T13:58:19;7.50;99.90
2851;DHT22;1433;49.976;8.342;2024-01-06T14:00:45;7.40;99.90
2851;DHT22;1433;49.976;8.342;2024-01-06T14:03:14;7.30;99.90
2851;DHT22;1433;49.976;8.342;2024-01-06T14:05:43;7.20;99.90
2851;DHT22;1433;49.976;8.342;2024-01-06T14:08:10;7.00;99.90
2851;DHT22;1433;49.976;8.342;2024-01-06T14:10:36;6.90;99.90
2851;DHT22;1433;49.976;8.342;2024-01-06T14:13:06;6.80;99.90
2851;DHT22;1433;49.976;8.342;2024-01-06T14:15:34;6.80;99.90
2851;DHT22;1433;49.976;8.342;2024-01-06T14:18:02;6.80;99.90
2851;DHT22;1433;49.976;8.342;2024-01-06T14:20:28;6.80;99.90
2851;DHT22;1433;49.976;8.342;2024-01-06T14:22:55;6.90;99.90
2851;DHT22;1433;49.976;8.342;2024-01-06T14:25:21;6.90;99.90
2851;DHT22;1433;49.976;8.342;2024-01-06T14:27:47;6.90;99.90
2851;DHT22;1433;49.976;8.342;2024-01-06T14:30:14;6.90;99.90
2851;DHT22;1433;49.976;8.342;2024-01-06T14:32:40;6.90;99.90
2851;DHT22;1433;49.976;8.342;2024-01-06T14:35:07;6.90;99.90
2851;DHT22;1433;49.976;8.342;2024-01-06T14:37:35;6.80;99.90
2851;DHT22;1433;49.976;8.342;2024-01-06T14:40:01;6.80;99.90
2851;DHT22;1433;49.976;8.342;2024-01-06T14:42:29;6.80;99.90
2851;DHT22;1433;49.976;8.342;2024-01-06T14:44:55;6.70;99.90
2851;DHT22;1433;49.976;8.342;2024-01-06T14:47:21;6.70;99.90
2851;DHT22;1433;49.976;8.342;2024-01-06T14:49:48;6.60;99.90
2851;DHT22;1433;49.976;8.342;2024-01-06T14:52:15;6.60;99.90
2851;DHT22;1433;49.976;8.342;2024-01-06T14:54:41;6.50;99.90
2851;DHT22;1433;49.976;8.342;2024-01-06T14:57:07;6.50;99.90
2851;DHT22;1433;49.976;8.342;2024-01-06T14:59:34;6.50;99.90
2851;DHT22;1433;49.976;8.342;2024-01-06T15:02:03;6.40;99.90
2851;DHT22;1433;49.976;8.342;2024-01-06T15:04:29;6.50;99.90
2851;DHT22;1433;49.976;8.342;2024-01-06T15:07:02;6.40;99.90
2851;DHT22;1433;49.976;8.342;2024-01-06T15:09:28;6.40;99.90
2851;DHT22;1433;49.976;8.342;2024-01-06T15:11:55;6.40;99.90
2851;DHT22;1433;49.976;8.342;2024-01-06T15:14:21;6.40;99.90
2851;DHT22;1433;49.976;8.342;2024-01-06T15:16:47;6.30;99.90
2851;DHT22;1433;49.976;8.342;2024-01-06T15:19:13;6.30;99.90
2851;DHT22;1433;49.976;8.342;2024-01-06T15:21:39;6.20;99.90
2851;DHT22;1433;49.976;8.342;2024-01-06T15:24:09;6.10;99.90
2851;DHT22;1433;49.976;8.342;2024-01-06T15:26:36;6.10;99.90
2851;DHT22;1433;49.976;8.342;2024-01-06T15:29:02;6.10;99.90
2851;DHT22;1433;49.976;8.342;2024-01-06T15:31:30;6.10;99.90
2851;DHT22;1433;49.976;8.342;2024-01-06T15:33:56;6.00;99.90
2851;DHT22;1433;49.976;8.342;2024-01-06T15:36:22;6.00;99.90
2851;DHT22;1433;49.976;8.342;2024-01-06T15:38:50;6.10;99.90
2851;DHT22;1433;49.976;8.342;2024-01-06T15:41:16;6.10;99.90
2851;DHT22;1433;49.976;8.342;2024-01-06T15:43:42;6.00;99.90
2851;DHT22;1433;49.976;8.342;2024-01-06T15:46:08;6.00;99.90
2851;DHT22;1433;49.976;8.342;2024-01-06T15:48:34;6.00;99.90
2851;DHT22;1433;49.976;8.342;2024-01-06T15:51:02;6.00;99.90
2851;DHT22;1433;49.976;8.342;2024-01-06T15:53:29;5.90;99.90
2851;DHT22;1433;49.976;8.342;2024-01-06T15:55:56;5.90;99.90
2851;DHT22;1433;49.976;8.342;2024-01-06T15:58:22;5.80;99.90
2851;DHT22;1433;49.976;8.342;2024-01-06T16:00:49;5.80;99.90
2851;DHT22;1433;49.976;8.342;2024-01-06T16:03:15;5.70;99.90
2851;DHT22;1433;49.976;8.342;2024-01-06T16:05:41;5.70;99.90
2851;DHT22;1433;49.976;8.342;2024-01-06T16:08:08;5.70;99.90
2851;DHT22;1433;49.976;8.342;2024-01-06T16:10:34;5.70;99.90
2851;DHT22;1433;49.976;8.342;2024-01-06T16:13:01;5.70;99.90
2851;DHT22;1433;49.976;8.342;2024-01-06T16:15:28;5.70;99.90
2851;DHT22;1433;49.976;8.342;2024-01-06T16:17:54;5.70;99.90
2851;DHT22;1433;49.976;8.342;2024-01-06T16:20:21;5.70;99.90
2851;DHT22;1433;49.976;8.342;2024-01-06T16:22:48;5.80;99.90
2851;DHT22;1433;49.976;8.342;2024-01-06T16:25:16;5.80;99.90
2851;DHT22;1433;49.976;8.342;2024-01-06T16:27:42;5.80;99.90